Time,TemperatureF,DewpointF,PressureIn,WindDirection,WindDirectionDegrees,WindSpeedMPH,WindSpeedGustMPH,Humidity,HourlyPrecipIn,Conditions,Clouds,dailyrainin,SoftwareType,DateUTC
2013-05-05 00:01:00,52.0,23.8,29.50,East,83,0.0,0.0,33,0.00,,,0.00,VWS V14.01,2013-05-05 04:01:00,
2013-05-05 00:02:00,52.0,23.8,29.50,East,83,0.0,0.0,33,0.00,,,0.00,VWS V14.01,2013-05-05 04:02:00,
2013-05-05 00:07:00,52.0,23.8,29.50,East,83,0.0,0.0,33,0.00,,,0.00,VWS V14.01,2013-05-05 04:07:00,
2013-05-05 00:12:00,51.6,24.2,29.50,East,83,0.0,0.0,34,0.00,,,0.00,VWS V14.01,2013-05-05 04:12:00,
2013-05-05 00:17:00,51.4,24.0,29.50,East,83,0.0,0.0,34,0.00,,,0.00,VWS V14.01,2013-05-05 04:17:00,
2013-05-05 00:22:00,51.1,24.4,29.50,East,83,0.0,0.0,35,0.00,,,0.00,VWS V14.01,2013-05-05 04:22:00,
2013-05-05 00:27:00,50.7,24.8,29.50,East,83,0.0,0.0,36,0.00,,,0.00,VWS V14.01,2013-05-05 04:27:00,
2013-05-05 00:32:00,50.5,24.6,29.50,East,83,0.0,0.0,36,0.00,,,0.00,VWS V14.01,2013-05-05 04:32:00,
2013-05-05 00:37:00,50.4,24.4,29.50,East,83,0.0,0.0,36,0.00,,,0.00,VWS V14.01,2013-05-05 04:37:00,
2013-05-05 00:42:00,50.2,24.3,29.50,East,83,0.0,0.0,36,0.00,,,0.00,VWS V14.01,2013-05-05 04:42:00,
2013-05-05 00:47:00,49.6,24.5,29.50,East,82,0.0,0.0,37,0.00,,,0.00,VWS V14.01,2013-05-05 04:47:00,
2013-05-05 00:52:00,49.5,24.3,29.50,East,83,0.0,0.0,37,0.00,,,0.00,VWS V14.01,2013-05-05 04:52:00,
2013-05-05 00:57:00,49.3,24.1,29.50,East,82,0.0,0.0,37,0.00,,,0.00,VWS V14.01,2013-05-05 04:57:00,
2013-05-05 01:02:00,49.3,24.1,29.50,East,83,0.0,0.0,37,0.00,,,0.00,VWS V14.01,2013-05-05 05:02:00,
2013-05-05 01:07:00,49.1,24.0,29.50,East,82,0.0,0.0,37,0.00,,,0.00,VWS V14.01,2013-05-05 05:07:00,
2013-05-05 01:12:00,49.1,24.0,29.50,East,83,0.0,0.0,37,0.00,,,0.00,VWS V14.01,2013-05-05 05:12:00,
2013-05-05 01:17:00,48.9,23.8,29.50,East,83,0.0,0.0,37,0.00,,,0.00,VWS V14.01,2013-05-05 05:17:00,
2013-05-05 01:22:00,48.7,24.3,29.50,NNE,15,0.0,0.0,38,0.00,,,0.00,VWS V14.01,2013-05-05 05:22:00,
2013-05-05 01:27:00,48.6,24.1,29.50,NNE,15,0.0,0.0,38,0.00,,,0.00,VWS V14.01,2013-05-05 05:27:00,
2013-05-05 01:32:00,48.4,24.0,29.50,NNE,15,0.0,0.0,38,0.00,,,0.00,VWS V14.01,2013-05-05 05:32:00,
2013-05-05 01:37:00,48.0,23.6,29.50,NNE,15,0.0,0.0,38,0.00,,,0.00,VWS V14.01,2013-05-05 05:37:00,
2013-05-05 01:42:00,47.8,23.5,29.50,NNE,15,0.0,0.0,38,0.00,,,0.00,VWS V14.01,2013-05-05 05:42:00,
2013-05-05 01:47:00,47.7,23.3,29.50,NNE,15,0.0,0.0,38,0.00,,,0.00,VWS V14.01,2013-05-05 05:47:00,
2013-05-05 01:52:00,47.5,23.2,29.50,NNE,15,0.0,0.0,38,0.00,,,0.00,VWS V14.01,2013-05-05 05:52:00,
2013-05-05 01:57:00,47.5,23.8,29.50,NNE,15,0.0,0.0,39,0.00,,,0.00,VWS V14.01,2013-05-05 05:57:00,
2013-05-05 02:02:00,47.3,23.6,29.50,NNE,15,0.0,0.0,39,0.00,,,0.00,VWS V14.01,2013-05-05 06:02:00,
2013-05-05 02:07:00,47.3,23.6,29.50,NNE,15,0.0,0.0,39,0.00,,,0.00,VWS V14.01,2013-05-05 06:07:00,
2013-05-05 02:12:00,47.3,23.6,29.50,NNE,15,0.0,0.0,39,0.00,,,0.00,VWS V14.01,2013-05-05 06:12:00,
2013-05-05 02:17:00,47.1,23.5,29.50,NNE,15,0.0,0.0,39,0.00,,,0.00,VWS V14.01,2013-05-05 06:17:00,
2013-05-05 02:22:00,47.3,23.6,29.50,NNE,15,0.0,0.0,39,0.00,,,0.00,VWS V14.01,2013-05-05 06:22:00,
2013-05-05 02:27:00,47.3,23.6,29.50,NNE,15,0.0,0.0,39,0.00,,,0.00,VWS V14.01,2013-05-05 06:27:00,
2013-05-05 02:32:00,46.9,23.3,29.50,NNE,15,0.0,0.0,39,0.00,,,0.00,VWS V14.01,2013-05-05 06:32:00,
2013-05-05 02:37:00,46.8,23.1,29.50,NNE,15,0.0,0.0,39,0.00,,,0.00,VWS V14.01,2013-05-05 06:37:00,
2013-05-05 02:42:00,46.8,23.1,29.50,NNE,15,0.0,0.0,39,0.00,,,0.00,VWS V14.01,2013-05-05 06:42:00,
2013-05-05 02:47:00,46.4,22.8,29.50,North,11,0.0,0.0,39,0.00,,,0.00,VWS V14.01,2013-05-05 06:47:00,
2013-05-05 02:53:00,46.2,22.6,29.50,North,11,0.0,0.0,39,0.00,,,0.00,VWS V14.01,2013-05-05 06:53:00,
2013-05-05 02:58:00,46.2,23.2,29.50,North,11,0.0,0.0,40,0.00,,,0.00,VWS V14.01,2013-05-05 06:58:00,
2013-05-05 03:03:00,46.2,23.2,29.50,North,11,0.0,0.0,40,0.00,,,0.00,VWS V14.01,2013-05-05 07:03:00,
2013-05-05 03:08:00,46.0,23.1,29.50,North,11,0.0,0.0,40,0.00,,,0.00,VWS V14.01,2013-05-05 07:08:00,
2013-05-05 03:13:00,45.9,22.9,29.50,North,11,0.0,0.0,40,0.00,,,0.00,VWS V14.01,2013-05-05 07:13:00,
2013-05-05 03:19:00,45.5,22.6,29.50,North,11,0.0,0.0,40,0.00,,,0.00,VWS V14.01,2013-05-05 07:19:00,
2013-05-05 03:24:00,45.5,22.6,29.50,North,11,0.0,0.0,40,0.00,,,0.00,VWS V14.01,2013-05-05 07:24:00,
2013-05-05 03:29:00,45.5,22.6,29.50,North,11,0.0,0.0,40,0.00,,,0.00,VWS V14.01,2013-05-05 07:29:00,
2013-05-05 03:34:00,45.5,22.6,29.50,North,11,0.0,0.0,40,0.00,,,0.00,VWS V14.01,2013-05-05 07:34:00,
2013-05-05 03:39:00,45.5,23.2,29.50,ENE,72,0.0,0.0,41,0.00,,,0.00,VWS V14.01,2013-05-05 07:39:00,
2013-05-05 03:44:00,45.5,23.2,29.50,ENE,72,0.0,0.0,41,0.00,,,0.00,VWS V14.01,2013-05-05 07:44:00,
2013-05-05 03:49:00,45.5,23.2,29.50,East,92,0.0,0.0,41,0.00,,,0.00,VWS V14.01,2013-05-05 07:49:00,
2013-05-05 03:54:00,45.1,22.9,29.50,NNE,24,0.0,0.0,41,0.00,,,0.00,VWS V14.01,2013-05-05 07:54:00,
2013-05-05 03:59:00,45.0,22.7,29.50,NNE,24,0.0,0.0,41,0.00,,,0.00,VWS V14.01,2013-05-05 07:59:00,
2013-05-05 04:04:00,45.0,22.7,29.50,NNE,24,0.0,0.0,41,0.00,,,0.00,VWS V14.01,2013-05-05 08:04:00,
2013-05-05 04:09:00,45.1,22.9,29.50,NNE,24,0.0,0.0,41,0.00,,,0.00,VWS V14.01,2013-05-05 08:09:00,
2013-05-05 04:14:00,45.0,22.7,29.50,NNE,24,0.0,0.0,41,0.00,,,0.00,VWS V14.01,2013-05-05 08:14:00,
2013-05-05 04:19:00,45.1,23.4,29.50,NNE,24,0.0,0.0,42,0.00,,,0.00,VWS V14.01,2013-05-05 08:19:00,
2013-05-05 04:24:00,45.1,23.4,29.50,NNE,24,0.0,0.0,42,0.00,,,0.00,VWS V14.01,2013-05-05 08:24:00,
2013-05-05 04:29:00,45.3,23.6,29.50,NNE,24,0.0,0.0,42,0.00,,,0.00,VWS V14.01,2013-05-05 08:29:00,
2013-05-05 04:34:00,45.3,23.6,29.50,NNE,24,0.0,0.0,42,0.00,,,0.00,VWS V14.01,2013-05-05 08:34:00,
2013-05-05 04:39:00,45.1,23.4,29.50,NNE,24,0.0,0.0,42,0.00,,,0.00,VWS V14.01,2013-05-05 08:39:00,
2013-05-05 04:44:00,45.0,23.3,29.50,NNE,24,0.0,0.0,42,0.00,,,0.00,VWS V14.01,2013-05-05 08:44:00,
2013-05-05 04:49:00,45.0,23.3,29.50,NNE,24,0.0,0.0,42,0.00,,,0.00,VWS V14.01,2013-05-05 08:49:00,
2013-05-05 04:54:00,44.6,22.9,29.50,NNE,24,0.0,0.0,42,0.00,,,0.00,VWS V14.01,2013-05-05 08:54:00,
2013-05-05 04:59:00,44.4,22.8,29.50,NNE,24,0.0,0.0,42,0.00,,,0.00,VWS V14.01,2013-05-05 08:59:00,
2013-05-05 05:04:00,44.1,22.5,29.50,NNE,24,0.0,0.0,42,0.00,,,0.00,VWS V14.01,2013-05-05 09:04:00,
2013-05-05 05:09:00,43.7,22.7,29.50,NNE,24,0.0,0.0,43,0.00,,,0.00,VWS V14.01,2013-05-05 09:09:00,
2013-05-05 05:14:00,43.5,22.5,29.50,NNE,24,0.0,0.0,43,0.00,,,0.00,VWS V14.01,2013-05-05 09:14:00,
2013-05-05 05:19:00,43.5,22.5,29.50,NNE,24,0.0,0.0,43,0.00,,,0.00,VWS V14.01,2013-05-05 09:19:00,
2013-05-05 05:24:00,43.3,22.4,29.50,NNE,24,0.0,0.0,43,0.00,,,0.00,VWS V14.01,2013-05-05 09:24:00,
2013-05-05 05:29:00,43.2,22.7,29.50,NNE,24,0.0,0.0,44,0.00,,,0.00,VWS V14.01,2013-05-05 09:29:00,
2013-05-05 05:34:00,43.2,22.7,29.50,NNE,24,0.0,0.0,44,0.00,,,0.00,VWS V14.01,2013-05-05 09:34:00,
2013-05-05 05:39:00,43.2,22.7,29.50,NNE,24,0.0,0.0,44,0.00,,,0.00,VWS V14.01,2013-05-05 09:39:00,
2013-05-05 05:44:00,43.2,22.7,29.50,NNE,24,0.0,0.0,44,0.00,,,0.00,VWS V14.01,2013-05-05 09:44:00,
2013-05-05 05:49:00,43.2,22.7,29.50,NNE,24,0.0,0.0,44,0.00,,,0.00,VWS V14.01,2013-05-05 09:49:00,
2013-05-05 05:54:00,43.0,22.6,29.50,NNE,24,0.0,0.0,44,0.00,,,0.00,VWS V14.01,2013-05-05 09:54:00,
2013-05-05 05:59:00,42.8,23.0,29.50,NNE,24,0.0,0.0,45,0.00,,,0.00,VWS V14.01,2013-05-05 09:59:00,
2013-05-05 06:04:00,42.8,23.0,29.50,NNE,24,0.0,0.0,45,0.00,,,0.00,VWS V14.01,2013-05-05 10:04:00,
2013-05-05 06:09:00,43.0,23.1,29.50,NNE,24,0.0,0.0,45,0.00,,,0.00,VWS V14.01,2013-05-05 10:09:00,
2013-05-05 06:14:00,43.5,24.1,29.50,NW,319,0.0,0.0,46,0.00,,,0.00,VWS V14.01,2013-05-05 10:14:00,
2013-05-05 06:19:00,44.2,25.3,29.50,NW,319,0.0,0.0,47,0.00,,,0.00,VWS V14.01,2013-05-05 10:19:00,
2013-05-05 06:24:00,44.8,25.8,29.50,West,260,0.0,3.1,47,0.00,,,0.00,VWS V14.01,2013-05-05 10:24:00,
2013-05-05 06:29:00,44.8,25.8,29.50,West,260,0.0,0.0,47,0.00,,,0.00,VWS V14.01,2013-05-05 10:29:00,
2013-05-05 06:34:00,45.1,26.6,29.50,West,260,0.0,0.0,48,0.00,,,0.00,VWS V14.01,2013-05-05 10:34:00,
2013-05-05 06:39:00,45.0,26.5,29.50,West,260,0.0,0.0,48,0.00,,,0.00,VWS V14.01,2013-05-05 10:39:00,
2013-05-05 06:44:00,45.1,27.1,29.50,West,260,0.0,0.0,49,0.00,,,0.00,VWS V14.01,2013-05-05 10:44:00,
2013-05-05 06:49:00,45.5,27.5,29.50,WSW,251,0.0,0.0,49,0.00,,,0.00,VWS V14.01,2013-05-05 10:49:00,
2013-05-05 06:54:00,45.9,27.8,29.50,WSW,257,0.0,0.0,49,0.00,,,0.00,VWS V14.01,2013-05-05 10:54:00,
2013-05-05 06:59:00,46.0,28.0,29.50,WNW,288,0.0,0.0,49,0.00,,,0.00,VWS V14.01,2013-05-05 10:59:00,
2013-05-05 07:05:00,46.4,28.3,29.50,West,260,0.0,0.0,49,0.00,,,0.00,VWS V14.01,2013-05-05 11:05:00,
2013-05-05 07:10:00,46.6,28.5,29.50,WSW,257,0.0,0.0,49,0.00,,,0.00,VWS V14.01,2013-05-05 11:10:00,
2013-05-05 07:15:00,46.9,28.8,29.50,West,259,0.0,0.0,49,0.00,,,0.00,VWS V14.01,2013-05-05 11:15:00,
2013-05-05 07:20:00,47.1,29.0,29.50,West,259,0.0,0.0,49,0.00,,,0.00,VWS V14.01,2013-05-05 11:20:00,
2013-05-05 07:25:00,47.3,29.1,29.50,West,259,0.0,0.0,49,0.00,,,0.00,VWS V14.01,2013-05-05 11:25:00,
2013-05-05 07:30:00,47.5,29.3,29.50,West,259,0.0,0.0,49,0.00,,,0.00,VWS V14.01,2013-05-05 11:30:00,
2013-05-05 07:35:00,47.7,29.5,29.53,West,259,0.0,0.0,49,0.00,,,0.00,VWS V14.01,2013-05-05 11:35:00,
2013-05-05 07:40:00,48.0,29.8,29.53,WSW,249,0.0,0.0,49,0.00,,,0.00,VWS V14.01,2013-05-05 11:40:00,
2013-05-05 07:45:00,48.6,29.8,29.53,SSE,161,0.0,0.0,48,0.00,,,0.00,VWS V14.01,2013-05-05 11:45:00,
2013-05-05 07:50:00,48.7,29.9,29.53,SSE,148,0.0,2.7,48,0.00,,,0.00,VWS V14.01,2013-05-05 11:50:00,
2013-05-05 07:55:00,49.1,30.3,29.53,SE,144,0.0,2.7,48,0.00,,,0.00,VWS V14.01,2013-05-05 11:55:00,
2013-05-05 08:00:00,49.5,30.6,29.53,South,191,0.0,0.0,48,0.00,,,0.00,VWS V14.01,2013-05-05 12:00:00,
2013-05-05 08:05:00,49.8,30.4,29.53,SE,136,2.2,3.1,47,0.00,,,0.00,VWS V14.01,2013-05-05 12:05:00,
2013-05-05 08:10:00,49.5,29.0,29.53,East,96,0.0,0.0,45,0.00,,,0.00,VWS V14.01,2013-05-05 12:10:00,
2013-05-05 08:15:00,49.6,28.6,29.53,WSW,246,0.0,0.0,44,0.00,,,0.00,VWS V14.01,2013-05-05 12:15:00,
2013-05-05 08:20:00,49.8,28.2,29.53,NW,304,0.0,0.0,43,0.00,,,0.00,VWS V14.01,2013-05-05 12:20:00,
2013-05-05 08:25:00,50.2,28.6,29.53,East,93,0.0,0.0,43,0.00,,,0.00,VWS V14.01,2013-05-05 12:25:00,
2013-05-05 08:30:00,50.4,28.2,29.53,ENE,66,0.0,0.0,42,0.00,,,0.00,VWS V14.01,2013-05-05 12:30:00,
2013-05-05 08:35:00,50.2,27.4,29.50,ENE,59,0.0,0.0,41,0.00,,,0.00,VWS V14.01,2013-05-05 12:35:00,
2013-05-05 08:40:00,50.4,27.0,29.50,West,266,0.0,0.0,40,0.00,,,0.00,VWS V14.01,2013-05-05 12:40:00,
2013-05-05 08:45:00,50.4,25.7,29.50,SSW,210,0.0,0.0,38,0.00,,,0.00,VWS V14.01,2013-05-05 12:45:00,
2013-05-05 08:50:00,51.1,27.0,29.53,East,93,0.0,2.7,39,0.00,,,0.00,VWS V14.01,2013-05-05 12:50:00,
2013-05-05 08:55:00,51.6,27.5,29.53,SE,134,0.0,0.0,39,0.00,,,0.00,VWS V14.01,2013-05-05 12:55:00,
2013-05-05 09:00:00,51.6,26.9,29.53,NNW,337,0.0,0.0,38,0.00,,,0.00,VWS V14.01,2013-05-05 13:00:00,
2013-05-05 09:06:00,51.6,26.2,29.53,SE,145,0.0,2.7,37,0.00,,,0.00,VWS V14.01,2013-05-05 13:06:00,
2013-05-05 09:11:00,52.2,26.7,29.53,SE,126,3.6,3.6,37,0.00,,,0.00,VWS V14.01,2013-05-05 13:11:00,
2013-05-05 09:16:00,52.9,26.7,29.53,West,262,2.7,2.7,36,0.00,,,0.00,VWS V14.01,2013-05-05 13:16:00,
2013-05-05 09:21:00,53.2,27.0,29.53,NNE,33,0.0,3.1,36,0.00,,,0.00,VWS V14.01,2013-05-05 13:21:00,
2013-05-05 09:26:00,53.2,27.0,29.53,SW,232,0.0,0.0,36,0.00,,,0.00,VWS V14.01,2013-05-05 13:26:00,
2013-05-05 09:31:00,52.5,25.0,29.53,West,279,0.0,0.0,34,0.00,,,0.00,VWS V14.01,2013-05-05 13:31:00,
2013-05-05 09:36:00,53.2,26.3,29.53,WSW,249,0.0,0.0,35,0.00,,,0.00,VWS V14.01,2013-05-05 13:36:00,
2013-05-05 09:41:00,54.1,27.1,29.53,SE,136,0.0,0.0,35,0.00,,,0.00,VWS V14.01,2013-05-05 13:41:00,
2013-05-05 09:46:00,54.3,25.9,29.53,South,171,0.0,0.0,33,0.00,,,0.00,VWS V14.01,2013-05-05 13:46:00,
2013-05-05 09:51:00,53.6,22.9,29.53,SW,227,0.0,2.2,30,0.00,,,0.00,VWS V14.01,2013-05-05 13:51:00,
2013-05-05 09:57:00,53.4,23.6,29.53,SW,220,0.0,0.0,31,0.00,,,0.00,VWS V14.01,2013-05-05 13:57:00,
2013-05-05 10:02:00,54.0,24.8,29.53,SW,233,0.0,0.0,32,0.00,,,0.00,VWS V14.01,2013-05-05 14:02:00,
2013-05-05 10:07:00,54.1,24.2,29.53,WSW,251,0.0,0.0,31,0.00,,,0.00,VWS V14.01,2013-05-05 14:07:00,
2013-05-05 10:12:00,54.5,24.5,29.53,ENE,68,3.1,3.1,31,0.00,,,0.00,VWS V14.01,2013-05-05 14:12:00,
2013-05-05 10:17:00,55.0,24.2,29.53,South,170,0.0,3.6,30,0.00,,,0.00,VWS V14.01,2013-05-05 14:17:00,
2013-05-05 10:22:00,55.0,24.2,29.53,WSW,249,0.0,0.0,30,0.00,,,0.00,VWS V14.01,2013-05-05 14:22:00,
2013-05-05 10:27:00,54.5,22.9,29.53,WSW,253,0.0,0.0,29,0.00,,,0.00,VWS V14.01,2013-05-05 14:27:00,
2013-05-05 10:32:00,54.1,23.4,29.53,ESE,115,0.0,2.2,30,0.00,,,0.00,VWS V14.01,2013-05-05 14:32:00,
2013-05-05 10:37:00,55.4,24.5,29.53,South,171,0.0,0.0,30,0.00,,,0.00,VWS V14.01,2013-05-05 14:37:00,
2013-05-05 10:42:00,55.8,24.0,29.53,East,89,2.2,3.6,29,0.00,,,0.00,VWS V14.01,2013-05-05 14:42:00,
2013-05-05 10:47:00,56.1,24.3,29.53,WSW,243,0.0,0.0,29,0.00,,,0.00,VWS V14.01,2013-05-05 14:47:00,
2013-05-05 10:52:00,55.4,23.7,29.53,West,263,0.0,0.0,29,0.00,,,0.00,VWS V14.01,2013-05-05 14:52:00,
2013-05-05 10:57:00,55.2,22.7,29.53,WSW,252,2.2,4.0,28,0.00,,,0.00,VWS V14.01,2013-05-05 14:57:00,
2013-05-05 11:02:00,55.9,24.2,29.53,SE,130,0.0,2.2,29,0.00,,,0.00,VWS V14.01,2013-05-05 15:02:00,
2013-05-05 11:07:00,56.5,23.8,29.53,SW,217,0.0,3.1,28,0.00,,,0.00,VWS V14.01,2013-05-05 15:07:00,
2013-05-05 11:13:00,56.1,22.6,29.53,WSW,237,0.0,0.0,27,0.00,,,0.00,VWS V14.01,2013-05-05 15:13:00,
2013-05-05 11:18:00,54.7,22.2,29.53,WSW,256,2.2,2.7,28,0.00,,,0.00,VWS V14.01,2013-05-05 15:18:00,
2013-05-05 11:23:00,54.9,22.4,29.53,WSW,252,3.1,3.1,28,0.00,,,0.00,VWS V14.01,2013-05-05 15:23:00,
2013-05-05 11:28:00,55.9,24.2,29.53,WSW,247,0.0,0.0,29,0.00,,,0.00,VWS V14.01,2013-05-05 15:28:00,
2013-05-05 11:33:00,55.4,22.9,29.53,SW,233,0.0,2.2,28,0.00,,,0.00,VWS V14.01,2013-05-05 15:33:00,
2013-05-05 11:38:00,55.0,23.4,29.53,West,279,2.7,2.7,29,0.00,,,0.00,VWS V14.01,2013-05-05 15:38:00,
2013-05-05 11:43:00,56.1,24.3,29.53,WNW,284,0.0,2.7,29,0.00,,,0.00,VWS V14.01,2013-05-05 15:43:00,
2013-05-05 11:48:00,56.5,23.8,29.50,West,280,0.0,2.7,28,0.00,,,0.00,VWS V14.01,2013-05-05 15:48:00,
2013-05-05 11:53:00,55.9,22.5,29.50,West,281,0.0,2.2,27,0.00,,,0.00,VWS V14.01,2013-05-05 15:53:00,
2013-05-05 11:58:00,56.7,24.0,29.50,NE,44,0.0,0.0,28,0.00,,,0.00,VWS V14.01,2013-05-05 15:58:00,
2013-05-05 12:03:00,57.0,24.3,29.50,SE,139,2.7,3.1,28,0.00,,,0.00,VWS V14.01,2013-05-05 16:03:00,
2013-05-05 12:08:00,57.0,23.4,29.50,WSW,254,3.1,3.1,27,0.00,,,0.00,VWS V14.01,2013-05-05 16:08:00,
2013-05-05 12:13:00,56.3,22.8,29.50,SSE,165,0.0,2.7,27,0.00,,,0.00,VWS V14.01,2013-05-05 16:13:00,
2013-05-05 12:18:00,56.5,23.8,29.50,SSE,151,3.6,4.9,28,0.00,,,0.00,VWS V14.01,2013-05-05 16:18:00,
2013-05-05 12:23:00,56.7,24.0,29.50,ESE,119,2.7,2.7,28,0.00,,,0.00,VWS V14.01,2013-05-05 16:23:00,
2013-05-05 12:28:00,56.8,24.1,29.50,SW,224,0.0,2.7,28,0.00,,,0.00,VWS V14.01,2013-05-05 16:28:00,
2013-05-05 12:33:00,57.2,24.4,29.50,ESE,113,2.7,5.4,28,0.00,,,0.00,VWS V14.01,2013-05-05 16:33:00,
2013-05-05 12:38:00,57.6,24.7,29.50,NE,43,5.4,5.4,28,0.00,,,0.00,VWS V14.01,2013-05-05 16:38:00,
2013-05-05 12:43:00,57.7,24.9,29.50,WNW,292,2.7,4.0,28,0.00,,,0.00,VWS V14.01,2013-05-05 16:43:00,
2013-05-05 12:49:00,57.7,24.0,29.50,WSW,257,0.0,0.0,27,0.00,,,0.00,VWS V14.01,2013-05-05 16:49:00,
2013-05-05 12:54:00,57.9,24.2,29.50,East,99,2.7,2.7,27,0.00,,,0.00,VWS V14.01,2013-05-05 16:54:00,
2013-05-05 12:59:00,57.6,23.0,29.50,WSW,248,2.7,2.7,26,0.00,,,0.00,VWS V14.01,2013-05-05 16:59:00,
2013-05-05 13:04:00,57.4,23.7,29.50,SSE,165,2.7,3.1,27,0.00,,,0.00,VWS V14.01,2013-05-05 17:04:00,
2013-05-05 13:09:00,58.1,24.3,29.50,SE,130,2.7,3.6,27,0.00,,,0.00,VWS V14.01,2013-05-05 17:09:00,
2013-05-05 13:14:00,58.5,24.6,29.50,East,83,0.0,0.0,27,0.00,,,0.00,VWS V14.01,2013-05-05 17:14:00,
2013-05-05 13:19:00,58.3,24.5,29.47,South,187,2.7,2.7,27,0.00,,,0.00,VWS V14.01,2013-05-05 17:19:00,
2013-05-05 13:24:00,57.9,23.3,29.47,West,274,2.7,2.7,26,0.00,,,0.00,VWS V14.01,2013-05-05 17:24:00,
2013-05-05 13:29:00,57.9,23.3,29.47,West,271,0.0,2.2,26,0.00,,,0.00,VWS V14.01,2013-05-05 17:29:00,
2013-05-05 13:34:00,58.3,23.6,29.47,ESE,118,0.0,0.0,26,0.00,,,0.00,VWS V14.01,2013-05-05 17:34:00,
2013-05-05 13:39:00,58.5,23.7,29.47,ENE,68,3.1,3.1,26,0.00,,,0.00,VWS V14.01,2013-05-05 17:39:00,
2013-05-05 13:44:00,59.0,24.2,29.47,ENE,72,2.2,4.0,26,0.00,,,0.00,VWS V14.01,2013-05-05 17:44:00,
2013-05-05 13:49:00,59.4,23.6,29.47,West,272,0.0,2.7,25,0.00,,,0.00,VWS V14.01,2013-05-05 17:49:00,
2013-05-05 13:55:00,59.4,23.6,29.47,East,81,3.1,4.0,25,0.00,,,0.00,VWS V14.01,2013-05-05 17:55:00,
2013-05-05 14:00:00,59.4,23.6,29.47,South,176,0.0,3.1,25,0.00,,,0.00,VWS V14.01,2013-05-05 18:00:00,
2013-05-05 14:05:00,59.5,23.7,29.47,ESE,109,3.1,5.4,25,0.00,,,0.00,VWS V14.01,2013-05-05 18:05:00,
2013-05-05 14:09:00,59.7,23.9,29.47,West,271,0.0,2.7,25,0.00,,,0.00,VWS V14.01,2013-05-05 18:09:00,
2013-05-05 14:14:00,60.1,25.1,29.47,South,179,2.7,3.1,26,0.00,,,0.00,VWS V14.01,2013-05-05 18:14:00,
2013-05-05 14:19:00,60.4,25.4,29.47,South,179,5.4,5.8,26,0.00,,,0.00,VWS V14.01,2013-05-05 18:19:00,
2013-05-05 14:25:00,60.8,25.7,29.47,East,100,3.1,3.1,26,0.00,,,0.00,VWS V14.01,2013-05-05 18:25:00,
2013-05-05 14:30:00,61.0,24.9,29.47,NE,53,0.0,0.0,25,0.00,,,0.00,VWS V14.01,2013-05-05 18:30:00,
2013-05-05 14:35:00,61.0,24.9,29.47,East,99,3.1,3.1,25,0.00,,,0.00,VWS V14.01,2013-05-05 18:35:00,
2013-05-05 14:40:00,61.0,24.9,29.47,North,0,0.0,0.0,25,0.00,,,0.00,VWS V14.01,2013-05-05 18:40:00,
2013-05-05 14:45:00,60.6,24.6,29.47,East,94,2.2,2.7,25,0.00,,,0.00,VWS V14.01,2013-05-05 18:45:00,
2013-05-05 14:50:00,61.0,24.9,29.47,North,5,0.0,3.1,25,0.00,,,0.00,VWS V14.01,2013-05-05 18:50:00,
2013-05-05 14:55:00,61.2,25.1,29.47,WSW,255,0.0,0.0,25,0.00,,,0.00,VWS V14.01,2013-05-05 18:55:00,
2013-05-05 15:00:00,61.5,25.4,29.47,SSW,204,2.2,4.0,25,0.00,,,0.00,VWS V14.01,2013-05-05 19:00:00,
2013-05-05 15:05:00,61.7,25.5,29.44,East,83,2.7,3.6,25,0.00,,,0.00,VWS V14.01,2013-05-05 19:05:00,
2013-05-05 15:10:00,61.9,25.7,29.44,SSW,212,0.0,0.0,25,0.00,,,0.00,VWS V14.01,2013-05-05 19:10:00,
2013-05-05 15:15:00,62.2,26.0,29.44,NW,324,2.7,2.7,25,0.00,,,0.00,VWS V14.01,2013-05-05 19:15:00,
2013-05-05 15:20:00,61.9,25.7,29.44,SE,131,0.0,0.0,25,0.00,,,0.00,VWS V14.01,2013-05-05 19:20:00,
2013-05-05 15:25:00,62.1,25.9,29.44,SSW,196,2.7,2.7,25,0.00,,,0.00,VWS V14.01,2013-05-05 19:25:00,
2013-05-05 15:31:00,61.9,24.7,29.44,WNW,290,0.0,2.2,24,0.00,,,0.00,VWS V14.01,2013-05-05 19:31:00,
2013-05-05 15:36:00,61.9,24.7,29.44,WSW,248,0.0,3.1,24,0.00,,,0.00,VWS V14.01,2013-05-05 19:36:00,
2013-05-05 15:41:00,61.9,24.7,29.44,South,181,0.0,3.1,24,0.00,,,0.00,VWS V14.01,2013-05-05 19:41:00,
2013-05-05 15:46:00,62.2,25.0,29.44,NNE,29,2.2,4.0,24,0.00,,,0.00,VWS V14.01,2013-05-05 19:46:00,
2013-05-05 15:51:00,62.1,24.9,29.44,NW,308,0.0,0.0,24,0.00,,,0.00,VWS V14.01,2013-05-05 19:51:00,
2013-05-05 15:56:00,62.2,25.0,29.44,WSW,242,0.0,2.2,24,0.00,,,0.00,VWS V14.01,2013-05-05 19:56:00,
2013-05-05 16:01:00,62.2,25.0,29.44,West,261,0.0,0.0,24,0.00,,,0.00,VWS V14.01,2013-05-05 20:01:00,
2013-05-05 16:06:00,62.2,25.0,29.44,SW,222,0.0,2.2,24,0.00,,,0.00,VWS V14.01,2013-05-05 20:06:00,
2013-05-05 16:11:00,62.4,25.2,29.44,ESE,117,3.1,3.1,24,0.00,,,0.00,VWS V14.01,2013-05-05 20:11:00,
2013-05-05 16:16:00,62.8,25.5,29.44,West,260,0.0,0.0,24,0.00,,,0.00,VWS V14.01,2013-05-05 20:16:00,
2013-05-05 16:21:00,63.1,25.8,29.44,WSW,243,4.0,4.0,24,0.00,,,0.00,VWS V14.01,2013-05-05 20:21:00,
2013-05-05 16:27:00,63.1,25.8,29.44,NNW,327,0.0,2.2,24,0.00,,,0.00,VWS V14.01,2013-05-05 20:27:00,
2013-05-05 16:32:00,63.1,25.8,29.44,SSW,205,0.0,2.2,24,0.00,,,0.00,VWS V14.01,2013-05-05 20:32:00,
2013-05-05 16:37:00,63.1,25.8,29.41,SW,216,2.2,2.2,24,0.00,,,0.00,VWS V14.01,2013-05-05 20:37:00,
2013-05-05 16:42:00,63.5,25.1,29.41,East,99,0.0,0.0,23,0.00,,,0.00,VWS V14.01,2013-05-05 20:42:00,
2013-05-05 16:47:00,63.5,25.1,29.41,East,91,0.0,0.0,23,0.00,,,0.00,VWS V14.01,2013-05-05 20:47:00,
2013-05-05 16:52:00,63.5,25.1,29.41,SSE,165,0.0,0.0,23,0.00,,,0.00,VWS V14.01,2013-05-05 20:52:00,
2013-05-05 16:57:00,63.5,25.1,29.41,East,81,0.0,0.0,23,0.00,,,0.00,VWS V14.01,2013-05-05 20:57:00,
2013-05-05 17:02:00,63.7,25.2,29.41,WNW,284,0.0,2.2,23,0.00,,,0.00,VWS V14.01,2013-05-05 21:02:00,
2013-05-05 17:07:00,63.5,25.1,29.41,SE,130,0.0,0.0,23,0.00,,,0.00,VWS V14.01,2013-05-05 21:07:00,
2013-05-05 17:12:00,63.5,25.1,29.41,SSW,210,0.0,0.0,23,0.00,,,0.00,VWS V14.01,2013-05-05 21:12:00,
2013-05-05 17:17:00,63.5,25.1,29.41,South,180,0.0,0.0,23,0.00,,,0.00,VWS V14.01,2013-05-05 21:17:00,
2013-05-05 17:23:00,63.9,25.4,29.41,ESE,118,0.0,3.6,23,0.00,,,0.00,VWS V14.01,2013-05-05 21:23:00,
2013-05-05 17:28:00,63.7,25.2,29.41,SSE,157,0.0,0.0,23,0.00,,,0.00,VWS V14.01,2013-05-05 21:28:00,
2013-05-05 17:33:00,63.7,25.2,29.44,SSE,153,0.0,3.6,23,0.00,,,0.00,VWS V14.01,2013-05-05 21:33:00,
2013-05-05 17:38:00,63.9,25.4,29.44,ESE,103,3.1,4.9,23,0.00,,,0.00,VWS V14.01,2013-05-05 21:38:00,
2013-05-05 17:43:00,63.9,25.4,29.44,SE,132,0.0,2.2,23,0.00,,,0.00,VWS V14.01,2013-05-05 21:43:00,
2013-05-05 17:48:00,63.9,25.4,29.44,SE,124,0.0,0.0,23,0.00,,,0.00,VWS V14.01,2013-05-05 21:48:00,
2013-05-05 17:53:00,63.9,25.4,29.44,South,180,0.0,0.0,23,0.00,,,0.00,VWS V14.01,2013-05-05 21:53:00,
2013-05-05 17:58:00,63.7,25.2,29.44,WNW,302,0.0,0.0,23,0.00,,,0.00,VWS V14.01,2013-05-05 21:58:00,
2013-05-05 18:03:00,63.5,25.1,29.44,East,80,0.0,0.0,23,0.00,,,0.00,VWS V14.01,2013-05-05 22:03:00,
2013-05-05 18:08:00,63.1,24.8,29.44,WSW,247,0.0,0.0,23,0.00,,,0.00,VWS V14.01,2013-05-05 22:08:00,
2013-05-05 18:13:00,62.8,24.5,29.44,West,276,0.0,0.0,23,0.00,,,0.00,VWS V14.01,2013-05-05 22:13:00,
2013-05-05 18:18:00,62.4,25.2,29.44,East,85,0.0,0.0,24,0.00,,,0.00,VWS V14.01,2013-05-05 22:18:00,
2013-05-05 18:23:00,62.2,25.0,29.44,WNW,297,0.0,2.2,24,0.00,,,0.00,VWS V14.01,2013-05-05 22:23:00,
2013-05-05 18:28:00,62.2,25.0,29.44,SE,144,0.0,0.0,24,0.00,,,0.00,VWS V14.01,2013-05-05 22:28:00,
2013-05-05 18:33:00,62.2,25.0,29.44,SE,145,0.0,0.0,24,0.00,,,0.00,VWS V14.01,2013-05-05 22:33:00,
2013-05-05 18:38:00,62.2,25.0,29.44,SSE,158,0.0,0.0,24,0.00,,,0.00,VWS V14.01,2013-05-05 22:38:00,
2013-05-05 18:43:00,62.2,25.0,29.44,North,0,0.0,2.7,24,0.00,,,0.00,VWS V14.01,2013-05-05 22:43:00,
2013-05-05 18:48:00,62.1,24.9,29.41,SW,227,0.0,0.0,24,0.00,,,0.00,VWS V14.01,2013-05-05 22:48:00,
2013-05-05 18:53:00,61.9,24.7,29.41,East,92,0.0,0.0,24,0.00,,,0.00,VWS V14.01,2013-05-05 22:53:00,
2013-05-05 18:58:00,61.7,24.6,29.41,SSW,204,2.2,2.7,24,0.00,,,0.00,VWS V14.01,2013-05-05 22:58:00,
2013-05-05 19:03:00,61.7,24.6,29.41,SW,215,0.0,0.0,24,0.00,,,0.00,VWS V14.01,2013-05-05 23:03:00,
2013-05-05 19:08:00,61.7,24.6,29.41,SSW,197,0.0,0.0,24,0.00,,,0.00,VWS V14.01,2013-05-05 23:08:00,
2013-05-05 19:13:00,61.3,24.3,29.41,ESE,114,0.0,0.0,24,0.00,,,0.00,VWS V14.01,2013-05-05 23:13:00,
2013-05-05 19:18:00,61.2,24.1,29.44,SW,234,0.0,0.0,24,0.00,,,0.00,VWS V14.01,2013-05-05 23:18:00,
2013-05-05 19:23:00,61.0,24.0,29.44,SSW,210,2.2,2.2,24,0.00,,,0.00,VWS V14.01,2013-05-05 23:23:00,
2013-05-05 19:28:00,60.6,23.6,29.44,SSE,156,0.0,0.0,24,0.00,,,0.00,VWS V14.01,2013-05-05 23:28:00,
2013-05-05 19:33:00,60.3,23.4,29.44,SW,214,0.0,0.0,24,0.00,,,0.00,VWS V14.01,2013-05-05 23:33:00,
2013-05-05 19:38:00,59.7,22.9,29.44,SW,221,0.0,0.0,24,0.00,,,0.00,VWS V14.01,2013-05-05 23:38:00,
2013-05-05 19:43:00,59.4,22.6,29.44,WSW,250,0.0,0.0,24,0.00,,,0.00,VWS V14.01,2013-05-05 23:43:00,
2013-05-05 19:48:00,59.2,22.4,29.44,WSW,250,0.0,0.0,24,0.00,,,0.00,VWS V14.01,2013-05-05 23:48:00,
2013-05-05 19:53:00,58.8,23.1,29.44,WSW,250,0.0,0.0,25,0.00,,,0.00,VWS V14.01,2013-05-05 23:53:00,
2013-05-05 19:58:00,58.3,22.6,29.44,WSW,250,0.0,0.0,25,0.00,,,0.00,VWS V14.01,2013-05-05 23:58:00,
2013-05-05 20:04:00,57.9,22.3,29.44,WSW,250,0.0,0.0,25,0.00,,,0.00,VWS V14.01,2013-05-06 00:04:00,
2013-05-05 20:09:00,57.4,21.9,29.44,WSW,250,0.0,0.0,25,0.00,,,0.00,VWS V14.01,2013-05-06 00:09:00,
2013-05-05 20:14:00,57.2,21.7,29.44,WSW,250,0.0,0.0,25,0.00,,,0.00,VWS V14.01,2013-05-06 00:14:00,
2013-05-05 20:19:00,56.8,22.3,29.44,WSW,250,0.0,0.0,26,0.00,,,0.00,VWS V14.01,2013-05-06 00:19:00,
2013-05-05 20:24:00,56.5,22.0,29.44,WSW,250,0.0,0.0,26,0.00,,,0.00,VWS V14.01,2013-05-06 00:24:00,
2013-05-05 20:29:00,56.3,21.9,29.44,WSW,250,0.0,0.0,26,0.00,,,0.00,VWS V14.01,2013-05-06 00:29:00,
2013-05-05 20:35:00,55.9,21.6,29.44,WSW,250,0.0,0.0,26,0.00,,,0.00,VWS V14.01,2013-05-06 00:35:00,
2013-05-05 20:40:00,55.9,21.6,29.44,WSW,250,0.0,0.0,26,0.00,,,0.00,VWS V14.01,2013-05-06 00:40:00,
2013-05-05 20:45:00,55.6,21.3,29.44,WSW,250,0.0,0.0,26,0.00,,,0.00,VWS V14.01,2013-05-06 00:45:00,
2013-05-05 20:50:00,55.4,22.0,29.44,WSW,250,0.0,0.0,27,0.00,,,0.00,VWS V14.01,2013-05-06 00:50:00,
2013-05-05 20:55:00,55.2,21.8,29.44,WSW,250,0.0,0.0,27,0.00,,,0.00,VWS V14.01,2013-05-06 00:55:00,
2013-05-05 21:00:00,55.0,21.7,29.44,WSW,250,0.0,0.0,27,0.00,,,0.00,VWS V14.01,2013-05-06 01:00:00,
2013-05-05 21:05:00,54.7,21.4,29.44,WSW,250,0.0,0.0,27,0.00,,,0.00,VWS V14.01,2013-05-06 01:05:00,
2013-05-05 21:10:00,54.5,21.2,29.44,WSW,250,0.0,0.0,27,0.00,,,0.00,VWS V14.01,2013-05-06 01:10:00,
2013-05-05 21:15:00,54.1,20.9,29.44,WSW,250,0.0,0.0,27,0.00,,,0.00,VWS V14.01,2013-05-06 01:15:00,
2013-05-05 21:20:00,54.0,21.6,29.44,WSW,250,0.0,0.0,28,0.00,,,0.00,VWS V14.01,2013-05-06 01:20:00,
2013-05-05 21:25:00,53.8,21.5,29.44,WSW,250,0.0,0.0,28,0.00,,,0.00,VWS V14.01,2013-05-06 01:25:00,
2013-05-05 21:30:00,53.6,21.3,29.44,WSW,250,0.0,0.0,28,0.00,,,0.00,VWS V14.01,2013-05-06 01:30:00,
2013-05-05 21:35:00,53.2,21.8,29.44,WSW,250,0.0,0.0,29,0.00,,,0.00,VWS V14.01,2013-05-06 01:35:00,
2013-05-05 21:40:00,53.1,21.7,29.44,WSW,250,0.0,0.0,29,0.00,,,0.00,VWS V14.01,2013-05-06 01:40:00,
2013-05-05 21:45:00,52.7,21.4,29.44,WSW,250,0.0,0.0,29,0.00,,,0.00,VWS V14.01,2013-05-06 01:45:00,
2013-05-05 21:50:00,52.5,21.2,29.47,WSW,250,0.0,0.0,29,0.00,,,0.00,VWS V14.01,2013-05-06 01:50:00,
2013-05-05 21:55:00,52.2,21.7,29.47,WSW,250,0.0,0.0,30,0.00,,,0.00,VWS V14.01,2013-05-06 01:55:00,
2013-05-05 22:00:00,52.2,21.7,29.47,WSW,250,0.0,0.0,30,0.00,,,0.00,VWS V14.01,2013-05-06 02:00:00,
2013-05-05 22:05:00,52.0,22.3,29.47,WSW,250,0.0,0.0,31,0.00,,,0.00,VWS V14.01,2013-05-06 02:05:00,
2013-05-05 22:10:00,52.0,22.3,29.47,WSW,250,0.0,0.0,31,0.00,,,0.00,VWS V14.01,2013-05-06 02:10:00,
2013-05-05 22:15:00,51.8,22.1,29.47,WSW,250,0.0,0.0,31,0.00,,,0.00,VWS V14.01,2013-05-06 02:15:00,
2013-05-05 22:20:00,51.6,22.7,29.47,WSW,250,0.0,0.0,32,0.00,,,0.00,VWS V14.01,2013-05-06 02:20:00,
2013-05-05 22:25:00,51.4,23.3,29.47,WSW,250,0.0,0.0,33,0.00,,,0.00,VWS V14.01,2013-05-06 02:25:00,
2013-05-05 22:30:00,51.3,23.2,29.47,WSW,250,0.0,0.0,33,0.00,,,0.00,VWS V14.01,2013-05-06 02:30:00,
2013-05-05 22:35:00,51.1,23.7,29.47,WSW,250,0.0,0.0,34,0.00,,,0.00,VWS V14.01,2013-05-06 02:35:00,
2013-05-05 22:41:00,51.1,23.7,29.47,WSW,250,0.0,0.0,34,0.00,,,0.00,VWS V14.01,2013-05-06 02:41:00,
2013-05-05 22:46:00,50.9,24.2,29.47,WSW,250,0.0,0.0,35,0.00,,,0.00,VWS V14.01,2013-05-06 02:46:00,
2013-05-05 22:51:00,50.7,24.8,29.47,WSW,250,0.0,0.0,36,0.00,,,0.00,VWS V14.01,2013-05-06 02:51:00,
2013-05-05 22:56:00,50.5,24.6,29.47,WSW,250,0.0,0.0,36,0.00,,,0.00,VWS V14.01,2013-05-06 02:56:00,
2013-05-05 23:01:00,50.2,24.3,29.47,WSW,250,0.0,0.0,36,0.00,,,0.00,VWS V14.01,2013-05-06 03:01:00,
2013-05-05 23:06:00,50.0,24.1,29.47,WSW,250,0.0,0.0,36,0.00,,,0.00,VWS V14.01,2013-05-06 03:06:00,
2013-05-05 23:11:00,49.6,24.5,29.47,WSW,250,0.0,0.0,37,0.00,,,0.00,VWS V14.01,2013-05-06 03:11:00,
2013-05-05 23:16:00,49.5,24.3,29.47,WSW,250,0.0,0.0,37,0.00,,,0.00,VWS V14.01,2013-05-06 03:16:00,
2013-05-05 23:21:00,49.6,24.5,29.47,WSW,250,0.0,0.0,37,0.00,,,0.00,VWS V14.01,2013-05-06 03:21:00,
2013-05-05 23:26:00,49.6,24.5,29.47,WSW,250,0.0,0.0,37,0.00,,,0.00,VWS V14.01,2013-05-06 03:26:00,
2013-05-05 23:31:00,49.5,24.3,29.47,WSW,250,0.0,0.0,37,0.00,,,0.00,VWS V14.01,2013-05-06 03:31:00,
2013-05-05 23:37:00,49.3,24.8,29.47,WSW,250,0.0,0.0,38,0.00,,,0.00,VWS V14.01,2013-05-06 03:37:00,
2013-05-05 23:42:00,48.9,24.5,29.47,WSW,250,0.0,0.0,38,0.00,,,0.00,VWS V14.01,2013-05-06 03:42:00,
2013-05-05 23:47:00,48.7,24.3,29.47,WSW,250,0.0,0.0,38,0.00,,,0.00,VWS V14.01,2013-05-06 03:47:00,
2013-05-05 23:52:00,48.6,24.1,29.47,WSW,250,0.0,0.0,38,0.00,,,0.00,VWS V14.01,2013-05-06 03:52:00,
2013-05-05 23:57:00,48.2,23.8,29.47,WSW,250,0.0,0.0,38,0.00,,,0.00,VWS V14.01,2013-05-06 03:57:00,